createdAt,value
2023-12-16T00:01:01.077Z,8.96
2023-12-16T00:03:28.707Z,8.99
2023-12-16T00:05:55.327Z,9.00
2023-12-16T00:08:23.169Z,9.00
2023-12-16T00:10:52.759Z,8.93
2023-12-16T00:13:21.397Z,8.90
2023-12-16T00:15:48.093Z,8.94
2023-12-16T00:18:14.765Z,8.98
2023-12-16T00:20:41.362Z,9.01
2023-12-16T00:23:08.867Z,9.06
2023-12-16T00:25:35.351Z,9.09
2023-12-16T00:28:01.880Z,9.13
2023-12-16T00:30:28.553Z,9.09
2023-12-16T00:32:55.307Z,9.09
2023-12-16T00:35:21.968Z,9.09
2023-12-16T00:37:48.502Z,9.05
2023-12-16T00:40:15.137Z,8.99
2023-12-16T00:42:41.766Z,8.92
2023-12-16T00:45:08.704Z,8.90
2023-12-16T00:47:35.328Z,8.85
2023-12-16T00:50:01.977Z,8.80
2023-12-16T00:52:28.602Z,8.82
2023-12-16T00:54:55.158Z,8.83
2023-12-16T00:57:21.757Z,8.86
2023-12-16T00:59:48.285Z,8.86
2023-12-16T01:02:14.805Z,8.79
2023-12-16T01:04:41.472Z,8.77
2023-12-16T01:07:08.103Z,8.76
2023-12-16T01:09:34.634Z,8.82
2023-12-16T01:12:01.284Z,8.86
2023-12-16T01:14:27.814Z,8.90
2023-12-16T01:16:54.499Z,8.90
2023-12-16T01:19:21.516Z,8.89
2023-12-16T01:21:48.196Z,8.83
2023-12-16T01:24:14.689Z,8.79
2023-12-16T01:26:41.218Z,8.84
2023-12-16T01:29:07.797Z,8.81
2023-12-16T01:31:34.516Z,8.79
2023-12-16T01:34:01.291Z,8.83
2023-12-16T01:36:27.994Z,8.85
2023-12-16T01:38:54.519Z,8.86
2023-12-16T01:41:21.303Z,8.85
2023-12-16T01:43:47.953Z,8.81
2023-12-16T01:46:15.664Z,8.78
2023-12-16T01:48:43.619Z,8.75
2023-12-16T01:51:10.726Z,8.74
2023-12-16T01:53:38.333Z,8.77
2023-12-16T01:56:06.453Z,8.76
2023-12-16T01:58:34.141Z,8.77
2023-12-16T02:01:00.748Z,8.77
2023-12-16T02:03:29.003Z,8.80
2023-12-16T02:05:56.940Z,8.84
2023-12-16T02:08:23.493Z,8.72
2023-12-16T02:10:50.050Z,8.64
2023-12-16T02:13:16.654Z,8.68
2023-12-16T02:15:43.373Z,8.76
2023-12-16T02:18:10.164Z,8.84
2023-12-16T02:20:36.786Z,8.91
2023-12-16T02:23:04.064Z,8.89
2023-12-16T02:25:30.762Z,8.86
2023-12-16T02:27:57.360Z,8.83
2023-12-16T02:30:25.359Z,8.79
2023-12-16T02:32:56.860Z,8.76
2023-12-16T02:35:23.615Z,8.71
2023-12-16T02:37:50.107Z,8.69
2023-12-16T02:40:16.704Z,8.67
2023-12-16T02:42:43.345Z,8.65
2023-12-16T02:45:10.162Z,8.61
2023-12-16T02:47:37.061Z,8.63
2023-12-16T02:50:05.118Z,8.66
2023-12-16T02:52:31.807Z,8.69
2023-12-16T02:54:58.524Z,8.70
2023-12-16T02:57:25.062Z,8.74
2023-12-16T02:59:51.575Z,8.78
2023-12-16T03:02:18.077Z,8.83
2023-12-16T03:04:45.689Z,8.81
2023-12-16T03:07:12.262Z,8.82
2023-12-16T03:09:38.900Z,8.85
2023-12-16T03:12:05.722Z,8.92
2023-12-16T03:14:32.367Z,8.94
2023-12-16T03:16:58.892Z,8.92
2023-12-16T03:19:25.736Z,8.91
2023-12-16T03:21:52.417Z,8.91
2023-12-16T03:24:18.940Z,8.86
2023-12-16T03:26:45.454Z,8.86
2023-12-16T03:29:12.708Z,8.83
2023-12-16T03:31:39.317Z,8.76
2023-12-16T03:34:05.909Z,8.78
2023-12-16T03:36:32.461Z,8.74
2023-12-16T03:38:59.021Z,8.73
2023-12-16T03:41:25.548Z,8.72
2023-12-16T03:43:52.086Z,8.73
2023-12-16T03:46:18.763Z,8.76
2023-12-16T03:48:45.509Z,8.76
2023-12-16T03:51:12.085Z,8.72
2023-12-16T03:53:38.600Z,8.70
2023-12-16T03:56:05.244Z,8.72
2023-12-16T03:58:31.756Z,8.73
2023-12-16T04:00:58.364Z,8.75
2023-12-16T04:03:24.965Z,8.80
2023-12-16T04:05:51.497Z,8.84
2023-12-16T04:08:18.024Z,8.89
2023-12-16T04:10:44.530Z,8.91
2023-12-16T04:13:11.165Z,8.95
2023-12-16T04:15:37.710Z,8.98
2023-12-16T04:18:04.428Z,9.02
2023-12-16T04:20:31.568Z,8.98
2023-12-16T04:22:58.098Z,8.85
2023-12-16T04:25:24.730Z,8.77
2023-12-16T04:27:52.294Z,8.75
2023-12-16T04:30:18.877Z,8.77
2023-12-16T04:32:45.395Z,8.78
2023-12-16T04:35:11.920Z,8.73
2023-12-16T04:37:38.708Z,8.71
2023-12-16T04:40:06.310Z,8.68
2023-12-16T04:42:32.915Z,8.72
2023-12-16T04:44:59.409Z,8.73
2023-12-16T04:47:26.153Z,8.72
2023-12-16T04:49:52.748Z,8.71
2023-12-16T04:52:19.688Z,8.69
2023-12-16T04:54:46.472Z,8.69
2023-12-16T04:57:12.962Z,8.68
2023-12-16T04:59:39.474Z,8.72
2023-12-16T05:02:06.013Z,8.72
2023-12-16T05:04:32.591Z,8.75
2023-12-16T05:06:59.242Z,8.79
2023-12-16T05:09:25.838Z,8.86
2023-12-16T05:11:52.398Z,8.89
2023-12-16T05:14:18.936Z,8.92
2023-12-16T05:16:45.414Z,8.91
2023-12-16T05:19:11.951Z,8.89
2023-12-16T05:21:38.486Z,8.88
2023-12-16T05:24:05.425Z,8.92
2023-12-16T05:26:32.605Z,8.91
2023-12-16T05:28:59.121Z,8.90
2023-12-16T05:31:25.688Z,8.82
2023-12-16T05:33:52.279Z,8.76
2023-12-16T05:36:18.868Z,8.75
2023-12-16T05:38:45.429Z,8.69
2023-12-16T05:41:17.500Z,8.68
2023-12-16T05:43:44.651Z,8.67
2023-12-16T05:46:11.231Z,8.70
2023-12-16T05:48:37.981Z,8.76
2023-12-16T05:51:05.954Z,8.76
2023-12-16T05:53:35.509Z,8.71
2023-12-16T05:56:05.990Z,9.10
2023-12-16T05:58:32.573Z,9.97
2023-12-16T06:00:59.159Z,10.60
2023-12-16T06:03:26.240Z,10.40
2023-12-16T06:05:52.842Z,10.03
2023-12-16T06:08:19.386Z,9.85
2023-12-16T06:10:45.989Z,9.73
2023-12-16T06:13:12.685Z,9.51
2023-12-16T06:15:39.360Z,9.35
2023-12-16T06:18:07.673Z,9.29
2023-12-16T06:20:34.344Z,9.22
2023-12-16T06:23:00.851Z,9.12
2023-12-16T06:25:27.491Z,9.06
2023-12-16T06:27:54.170Z,8.97
2023-12-16T06:30:20.830Z,8.90
2023-12-16T06:32:47.382Z,8.78
2023-12-16T06:35:14.011Z,8.73
2023-12-16T06:37:40.802Z,8.70
2023-12-16T06:40:08.645Z,8.67
2023-12-16T06:42:35.238Z,8.55
2023-12-16T06:45:01.737Z,8.47
2023-12-16T06:47:28.255Z,8.43
2023-12-16T06:49:54.961Z,8.45
2023-12-16T06:52:23.205Z,8.39
2023-12-16T06:54:49.767Z,8.34
2023-12-16T06:57:16.345Z,8.32
2023-12-16T06:59:42.820Z,8.36
2023-12-16T07:02:09.361Z,8.40
2023-12-16T07:04:35.931Z,8.38
2023-12-16T07:07:02.533Z,8.39
2023-12-16T07:09:29.088Z,8.40
2023-12-16T07:11:55.618Z,8.36
2023-12-16T07:14:22.283Z,8.35
2023-12-16T07:16:48.789Z,8.34
2023-12-16T07:19:16.114Z,8.35
2023-12-16T07:21:43.016Z,8.41
2023-12-16T07:24:09.514Z,8.46
2023-12-16T07:26:36.035Z,8.43
2023-12-16T07:29:03.326Z,8.41
2023-12-16T07:31:30.382Z,8.38
2023-12-16T07:33:57.632Z,8.37
2023-12-16T07:36:24.289Z,8.34
2023-12-16T07:38:50.838Z,8.35
2023-12-16T07:41:17.354Z,8.36
2023-12-16T07:43:43.839Z,8.39
2023-12-16T07:46:10.415Z,8.40
2023-12-16T07:48:37.110Z,8.38
2023-12-16T07:51:03.813Z,8.35
2023-12-16T07:53:30.318Z,8.38
2023-12-16T07:55:57.199Z,8.39
2023-12-16T07:58:23.777Z,8.46
2023-12-16T08:00:50.381Z,8.44
2023-12-16T08:03:16.984Z,8.36
2023-12-16T08:05:43.690Z,8.38
2023-12-16T08:08:10.176Z,8.47
2023-12-16T08:10:37.117Z,8.45
2023-12-16T08:13:03.705Z,8.43
2023-12-16T08:15:32.026Z,8.46
2023-12-16T08:17:58.572Z,8.40
2023-12-16T08:20:25.091Z,8.38
2023-12-16T08:22:51.573Z,8.41
2023-12-16T08:25:18.648Z,8.39
2023-12-16T08:27:45.196Z,8.41
2023-12-16T08:30:14.306Z,8.43
2023-12-16T08:32:41.198Z,8.45
2023-12-16T08:35:08.295Z,8.47
2023-12-16T08:37:34.961Z,8.52
2023-12-16T08:40:01.553Z,8.60
2023-12-16T08:42:28.086Z,8.67
2023-12-16T08:44:54.633Z,8.70
2023-12-16T08:47:21.146Z,8.77
2023-12-16T08:49:47.736Z,8.82
2023-12-16T08:52:14.731Z,8.83
2023-12-16T08:54:42.494Z,8.91
2023-12-16T08:57:09.020Z,8.96
2023-12-16T08:59:36.481Z,8.99
2023-12-16T09:02:04.594Z,9.02
2023-12-16T09:04:31.342Z,9.05
2023-12-16T09:06:58.200Z,9.06
2023-12-16T09:09:24.771Z,9.10
2023-12-16T09:11:51.393Z,9.17
2023-12-16T09:14:17.916Z,9.19
2023-12-16T09:16:44.434Z,9.14
2023-12-16T09:19:13.178Z,9.13
2023-12-16T09:21:40.914Z,9.10
2023-12-16T09:24:07.474Z,9.15
2023-12-16T09:26:34.005Z,9.20
2023-12-16T09:29:01.944Z,9.23
2023-12-16T09:31:28.799Z,9.30
2023-12-16T09:33:55.592Z,9.32
2023-12-16T09:36:27.962Z,9.26
2023-12-16T09:38:55.993Z,9.23
2023-12-16T09:41:25.647Z,9.17
2023-12-16T09:43:56.753Z,9.24
2023-12-16T09:46:36.700Z,9.28
2023-12-16T09:49:04.026Z,9.31
2023-12-16T09:51:30.654Z,9.38
2023-12-16T09:53:57.277Z,9.43
2023-12-16T09:56:24.161Z,9.41
2023-12-16T09:58:53.130Z,9.42
2023-12-16T10:01:20.766Z,9.34
2023-12-16T10:03:48.518Z,9.32
2023-12-16T10:06:17.295Z,9.29
2023-12-16T10:08:44.577Z,9.24
2023-12-16T10:11:13.820Z,9.26
2023-12-16T10:14:04.712Z,9.23
2023-12-16T10:16:31.472Z,9.21
2023-12-16T10:18:59.314Z,9.26
2023-12-16T10:21:33.185Z,9.36
2023-12-16T10:24:01.590Z,9.36
2023-12-16T10:26:32.849Z,9.33
2023-12-16T10:29:02.187Z,9.36
2023-12-16T10:31:29.468Z,9.34
2023-12-16T10:33:56.223Z,9.34
2023-12-16T10:36:22.713Z,9.32
2023-12-16T10:38:49.234Z,9.34
2023-12-16T10:41:15.837Z,9.35
2023-12-16T10:43:42.477Z,9.35
2023-12-16T10:46:13.501Z,9.38
2023-12-16T10:48:41.113Z,9.39
2023-12-16T10:51:10.466Z,9.38
2023-12-16T10:53:41.934Z,9.38
2023-12-16T10:56:17.945Z,9.39
2023-12-16T10:58:55.317Z,9.43
2023-12-16T11:01:23.635Z,9.44
2023-12-16T11:03:56.055Z,9.40
2023-12-16T11:06:32.062Z,9.38
2023-12-16T11:09:01.696Z,9.35
2023-12-16T11:11:29.558Z,9.35
2023-12-16T11:13:57.200Z,9.38
2023-12-16T11:16:54.503Z,9.49
2023-12-16T11:19:25.793Z,9.58
2023-12-16T11:21:52.580Z,9.64
2023-12-16T11:24:20.119Z,9.71
2023-12-16T11:26:53.905Z,9.70
2023-12-16T11:29:24.633Z,9.77
2023-12-16T11:31:56.917Z,9.81
2023-12-16T11:34:46.476Z,9.87
2023-12-16T11:37:14.193Z,9.91
2023-12-16T11:39:49.290Z,9.92
2023-12-16T11:42:55.147Z,9.93
2023-12-16T11:45:39.894Z,9.94
2023-12-16T11:48:11.385Z,9.96
2023-12-16T11:50:40.774Z,9.98
2023-12-16T11:53:12.436Z,10.01
2023-12-16T11:55:39.913Z,10.04
2023-12-16T11:58:06.977Z,10.09
2023-12-16T12:00:34.147Z,10.11
2023-12-16T12:03:05.934Z,10.13
2023-12-16T12:05:34.565Z,10.19
2023-12-16T12:08:01.235Z,10.23
2023-12-16T12:10:28.066Z,10.27
2023-12-16T12:12:54.664Z,10.27
2023-12-16T12:15:21.387Z,10.30
2023-12-16T12:17:48.192Z,10.32
2023-12-16T12:20:18.072Z,10.30
2023-12-16T12:22:44.751Z,10.31
2023-12-16T12:27:44.803Z,10.31
2023-12-16T12:30:17.585Z,10.32
2023-12-16T12:32:44.366Z,10.30
2023-12-16T12:35:12.457Z,10.29
2023-12-16T12:37:41.252Z,10.30
2023-12-16T12:40:18.841Z,10.20
2023-12-16T12:42:45.328Z,10.16
2023-12-16T12:45:24.032Z,10.12
2023-12-16T12:47:50.656Z,10.16
2023-12-16T12:50:25.402Z,10.19
2023-12-16T12:53:18.521Z,10.17
2023-12-16T12:55:38.813Z,10.10
2023-12-16T12:58:11.317Z,10.14
2023-12-16T13:00:45.375Z,10.15
2023-12-16T13:03:12.411Z,10.16
2023-12-16T13:05:39.811Z,10.21
2023-12-16T13:08:11.684Z,10.27
2023-12-16T13:10:39.240Z,10.27
2023-12-16T13:13:05.784Z,10.27
2023-12-16T13:15:52.922Z,10.23
2023-12-16T13:18:19.481Z,10.17
2023-12-16T13:20:47.032Z,10.20
2023-12-16T13:23:14.313Z,10.20
2023-12-16T13:25:41.390Z,10.16
2023-12-16T13:28:07.985Z,10.20
2023-12-16T13:30:35.173Z,10.25
2023-12-16T13:33:02.123Z,10.27
2023-12-16T13:35:29.637Z,10.27
2023-12-16T13:37:56.130Z,10.23
2023-12-16T13:40:22.694Z,10.18
2023-12-16T13:42:49.231Z,10.16
2023-12-16T13:45:15.982Z,10.17
2023-12-16T13:47:43.215Z,10.14
2023-12-16T13:50:10.883Z,10.16
2023-12-16T13:52:37.382Z,10.14
2023-12-16T13:55:05.932Z,10.15
2023-12-16T13:57:32.690Z,10.09
2023-12-16T13:59:59.681Z,10.09
2023-12-16T14:02:26.307Z,10.06
2023-12-16T14:04:52.871Z,10.01
2023-12-16T14:07:19.534Z,9.96
2023-12-16T14:09:46.122Z,9.94
2023-12-16T14:12:13.432Z,9.93
2023-12-16T14:14:40.230Z,9.90
2023-12-16T14:17:07.214Z,9.87
2023-12-16T14:19:35.288Z,9.87
2023-12-16T14:22:03.127Z,9.88
2023-12-16T14:24:29.757Z,9.91
2023-12-16T14:26:56.774Z,9.91
2023-12-16T14:29:23.390Z,9.91
2023-12-16T14:31:50.350Z,9.91
2023-12-16T14:34:19.594Z,9.91
2023-12-16T14:36:47.096Z,9.88
2023-12-16T14:39:14.689Z,9.84
2023-12-16T14:41:41.746Z,9.80
2023-12-16T14:44:08.745Z,9.81
2023-12-16T14:46:35.493Z,9.77
2023-12-16T14:49:02.376Z,9.73
2023-12-16T14:51:29.165Z,9.67
2023-12-16T14:53:55.784Z,9.61
2023-12-16T14:56:22.907Z,9.62
2023-12-16T14:58:49.682Z,9.60
2023-12-16T15:01:29.465Z,9.56
2023-12-16T15:03:56.646Z,9.50
2023-12-16T15:06:30.224Z,9.45
2023-12-16T15:08:58.198Z,9.44
2023-12-16T15:11:24.843Z,9.38
2023-12-16T15:13:51.392Z,9.33
2023-12-16T15:16:20.674Z,9.26
2023-12-16T15:18:48.388Z,9.24
2023-12-16T15:21:15.105Z,9.19
2023-12-16T15:23:41.717Z,9.17
2023-12-16T15:26:08.340Z,9.14
2023-12-16T15:28:34.949Z,9.04
2023-12-16T15:31:01.669Z,8.98
2023-12-16T15:33:28.696Z,8.92
2023-12-16T15:35:55.762Z,8.86
2023-12-16T15:38:22.698Z,8.81
2023-12-16T15:40:49.600Z,8.78
2023-12-16T15:43:16.175Z,8.76
2023-12-16T15:45:42.776Z,8.74
2023-12-16T15:48:09.514Z,8.70
2023-12-16T15:50:36.578Z,8.64
2023-12-16T15:53:05.011Z,8.61
2023-12-16T15:55:31.624Z,8.59
2023-12-16T15:57:58.372Z,8.50
2023-12-16T16:00:27.254Z,8.46
2023-12-16T16:02:55.329Z,8.40
2023-12-16T16:05:24.249Z,8.38
2023-12-16T16:07:52.159Z,8.37
2023-12-16T16:10:19.940Z,8.32
2023-12-16T16:12:46.662Z,8.32
2023-12-16T16:15:17.491Z,8.29
2023-12-16T16:17:46.689Z,8.25
2023-12-16T16:20:13.773Z,8.18
2023-12-16T16:22:40.437Z,8.14
2023-12-16T16:25:10.110Z,8.11
2023-12-16T16:27:37.828Z,8.08
2023-12-16T16:30:05.907Z,8.05
2023-12-16T16:32:32.786Z,8.04
2023-12-16T16:34:59.640Z,8.00
2023-12-16T16:37:30.445Z,8.03
2023-12-16T16:39:59.423Z,8.04
2023-12-16T16:42:28.108Z,8.00
2023-12-16T16:44:54.753Z,7.98
2023-12-16T16:47:21.330Z,7.99
2023-12-16T16:49:47.943Z,8.00
2023-12-16T16:52:14.561Z,8.01
2023-12-16T16:54:41.095Z,8.00
2023-12-16T16:57:07.653Z,7.96
2023-12-16T16:59:34.243Z,7.88
2023-12-16T17:02:01.358Z,7.89
2023-12-16T17:04:28.081Z,7.89
2023-12-16T17:06:54.707Z,7.87
2023-12-16T17:09:21.276Z,7.84
2023-12-16T17:11:47.941Z,7.82
2023-12-16T17:14:14.572Z,7.77
2023-12-16T17:16:42.057Z,7.74
2023-12-16T17:19:10.393Z,7.70
2023-12-16T17:21:37.383Z,7.64
2023-12-16T17:24:04.897Z,7.59
2023-12-16T17:26:31.578Z,7.55
2023-12-16T17:28:58.134Z,7.50
2023-12-16T17:31:26.554Z,7.45
2023-12-16T17:33:54.235Z,7.39
2023-12-16T17:36:21.321Z,7.35
2023-12-16T17:38:48.080Z,7.28
2023-12-16T17:41:15.673Z,7.22
2023-12-16T17:43:42.730Z,7.17
2023-12-16T17:46:09.519Z,7.14
2023-12-16T17:48:36.186Z,7.06
2023-12-16T17:51:02.922Z,7.03
2023-12-16T17:53:29.748Z,7.02
2023-12-16T17:55:56.280Z,7.01
2023-12-16T17:58:22.855Z,7.00
2023-12-16T18:00:49.459Z,7.00
2023-12-16T18:03:16.046Z,6.99
2023-12-16T18:05:42.647Z,6.96
2023-12-16T18:08:09.244Z,7.01
2023-12-16T18:10:36.132Z,7.04
2023-12-16T18:13:03.742Z,7.13
2023-12-16T18:15:30.270Z,7.22
2023-12-16T18:17:56.880Z,7.30
2023-12-16T18:20:28.181Z,7.36
2023-12-16T18:22:55.642Z,7.44
2023-12-16T18:25:22.271Z,7.50
2023-12-16T18:27:48.851Z,7.38
2023-12-16T18:30:16.450Z,7.24
2023-12-16T18:32:43.258Z,7.12
2023-12-16T18:35:12.019Z,7.06
2023-12-16T18:37:43.669Z,6.95
2023-12-16T18:40:16.147Z,6.84
2023-12-16T18:42:44.342Z,6.77
2023-12-16T18:45:11.066Z,6.72
2023-12-16T18:47:37.982Z,6.64
2023-12-16T18:50:05.161Z,6.57
2023-12-16T18:52:31.678Z,6.52
2023-12-16T18:54:58.179Z,6.52
2023-12-16T18:57:24.733Z,6.49
2023-12-16T18:59:52.589Z,6.45
2023-12-16T19:02:23.260Z,6.47
2023-12-16T19:04:50.634Z,6.44
2023-12-16T19:07:17.311Z,6.42
2023-12-16T19:09:46.815Z,6.39
2023-12-16T19:12:13.707Z,6.36
2023-12-16T19:14:41.631Z,6.34
2023-12-16T19:17:09.242Z,6.26
2023-12-16T19:19:42.127Z,6.24
2023-12-16T19:22:09.838Z,6.24
2023-12-16T19:24:36.306Z,6.29
2023-12-16T19:27:02.889Z,6.31
2023-12-16T19:29:29.393Z,6.36
2023-12-16T19:31:56.075Z,6.32
2023-12-16T19:34:22.641Z,6.29
2023-12-16T19:36:49.712Z,6.26
2023-12-16T19:39:26.302Z,6.26
2023-12-16T19:41:58.130Z,6.30
2023-12-16T19:44:25.423Z,6.29
2023-12-16T19:46:52.400Z,6.22
2023-12-16T19:49:19.247Z,6.21
2023-12-16T19:51:48.800Z,6.20
2023-12-16T19:54:15.593Z,6.19
2023-12-16T19:56:42.187Z,6.14
2023-12-16T19:59:08.825Z,6.13
2023-12-16T20:01:36.904Z,6.15
2023-12-16T20:04:03.408Z,6.13
2023-12-16T20:06:30.101Z,6.13
2023-12-16T20:08:56.776Z,6.09
2023-12-16T20:11:23.367Z,6.04
2023-12-16T20:13:51.945Z,6.02
2023-12-16T20:16:19.131Z,6.01
2023-12-16T20:18:45.844Z,6.00
2023-12-16T20:21:12.514Z,6.00
2023-12-16T20:23:39.061Z,5.97
2023-12-16T20:26:05.754Z,5.93
2023-12-16T20:28:32.304Z,5.87
2023-12-16T20:30:58.933Z,5.78
2023-12-16T20:33:26.110Z,5.71
2023-12-16T20:35:52.671Z,5.71
2023-12-16T20:38:37.939Z,5.72
2023-12-16T20:41:04.630Z,5.75
2023-12-16T20:43:31.202Z,5.71
2023-12-16T20:45:57.761Z,5.71
2023-12-16T20:48:24.329Z,5.73
2023-12-16T20:50:51.170Z,5.76
2023-12-16T20:53:17.811Z,5.77
2023-12-16T20:55:44.377Z,5.73
2023-12-16T20:58:10.867Z,5.73
2023-12-16T21:00:37.471Z,5.74
2023-12-16T21:03:04.427Z,5.71
2023-12-16T21:05:31.105Z,5.71
2023-12-16T21:07:57.658Z,5.69
2023-12-16T21:10:24.174Z,5.68
2023-12-16T21:12:50.706Z,5.68
2023-12-16T21:15:17.259Z,5.66
2023-12-16T21:17:44.137Z,5.62
2023-12-16T21:20:11.124Z,5.58
2023-12-16T21:22:38.697Z,5.57
2023-12-16T21:25:05.952Z,5.55
2023-12-16T21:27:32.649Z,5.48
2023-12-16T21:29:59.170Z,5.47
2023-12-16T21:32:25.802Z,5.45
2023-12-16T21:34:52.563Z,5.42
2023-12-16T21:37:19.167Z,5.40
2023-12-16T21:39:45.744Z,5.37
2023-12-16T21:42:12.310Z,5.38
2023-12-16T21:44:38.871Z,5.33
2023-12-16T21:47:05.505Z,5.28
2023-12-16T21:49:32.298Z,5.18
2023-12-16T21:51:58.896Z,5.18
2023-12-16T21:54:25.460Z,5.20
2023-12-16T21:56:52.359Z,5.20
2023-12-16T21:59:19.669Z,5.21
2023-12-16T22:01:46.407Z,5.20
2023-12-16T22:04:13.020Z,5.19
2023-12-16T22:06:39.661Z,5.21
2023-12-16T22:09:06.384Z,5.20
2023-12-16T22:11:32.923Z,5.20
2023-12-16T22:13:59.418Z,5.21
2023-12-16T22:16:25.961Z,5.23
2023-12-16T22:18:53.374Z,5.24
2023-12-16T22:21:20.082Z,5.19
2023-12-16T22:23:46.751Z,5.20
2023-12-16T22:26:13.276Z,5.20
2023-12-16T22:28:39.787Z,5.21
2023-12-16T22:31:06.559Z,5.23
2023-12-16T22:33:33.200Z,5.23
2023-12-16T22:35:59.835Z,5.22
2023-12-16T22:38:26.515Z,5.23
2023-12-16T22:40:55.150Z,5.19
2023-12-16T22:43:28.242Z,5.14
2023-12-16T22:45:58.102Z,5.15
2023-12-16T22:48:24.876Z,5.15
2023-12-16T22:50:51.835Z,5.16
2023-12-16T22:53:18.434Z,5.18
2023-12-16T22:55:46.569Z,5.18
2023-12-16T22:58:13.228Z,5.17
2023-12-16T23:00:39.767Z,5.16
2023-12-16T23:03:06.509Z,5.12
2023-12-16T23:05:33.527Z,5.13
2023-12-16T23:08:00.090Z,5.14
2023-12-16T23:10:26.918Z,5.11
2023-12-16T23:12:55.660Z,5.11
2023-12-16T23:15:22.461Z,5.06
2023-12-16T23:17:49.314Z,5.04
2023-12-16T23:20:16.039Z,5.03
2023-12-16T23:22:42.555Z,5.00
2023-12-16T23:25:10.463Z,4.96
2023-12-16T23:27:38.027Z,4.93
2023-12-16T23:30:07.112Z,4.89
2023-12-16T23:32:34.062Z,4.86
2023-12-16T23:35:01.260Z,4.81
2023-12-16T23:37:28.023Z,4.79
2023-12-16T23:39:54.617Z,4.74
2023-12-16T23:42:21.248Z,4.69
2023-12-16T23:44:47.810Z,4.65
2023-12-16T23:47:14.425Z,4.63
2023-12-16T23:49:41.251Z,4.65
2023-12-16T23:52:08.658Z,4.70
2023-12-16T23:54:35.240Z,4.75
2023-12-16T23:57:01.908Z,4.80
2023-12-16T23:59:28.435Z,4.82
